Time;durP1;ratioP1;P1;durP2;ratioP2;P2;SDS_P1;SDS_P2;PMS_P1;PMS_P2;Temp;Humidity;BMP_temperature;BMP_pressure;BME280_temperature;BME280_humidity;BME280_pressure;Samples;Min_cycle;Max_cycle;Signal;HPM_P1;HPM_P2
2022/12/14 00:00:45;;;;;;;16.35;6.63;;;-1.30;99.90;;;;;;5070793;28;20398;-58
2022/12/14 00:03:11;;;;;;;18.42;6.90;;;-1.20;99.90;;;;;;5070372;28;20391;-56
2022/12/14 00:05:37;;;;;;;19.05;7.25;;;-1.20;99.90;;;;;;5071050;28;20837;-56
2022/12/14 00:08:03;;;;;;;18.35;7.30;;;-1.20;99.90;;;;;;5069859;28;20380;-62
2022/12/14 00:10:31;;;;;;;17.88;7.28;;;-1.40;99.90;;;;;;5070866;28;20490;-56
2022/12/14 00:12:57;;;;;;;17.67;7.67;;;-1.40;99.90;;;;;;5052811;28;20391;-56
2022/12/14 00:15:22;;;;;;;18.33;7.27;;;-1.30;99.90;;;;;;5070054;28;20946;-57
2022/12/14 00:17:48;;;;;;;19.47;7.17;;;-1.30;99.90;;;;;;5070792;28;20384;-59
2022/12/14 00:20:13;;;;;;;12.80;6.03;;;-1.30;99.90;;;;;;5069959;28;20395;-56
2022/12/14 00:22:39;;;;;;;15.10;6.63;;;-1.30;99.90;;;;;;5070961;28;20462;-56
2022/12/14 00:25:05;;;;;;;19.77;7.60;;;-1.30;99.90;;;;;;5069802;28;20434;-57
2022/12/14 00:27:31;;;;;;;15.57;7.25;;;-1.20;99.90;;;;;;5070501;28;20383;-57
2022/12/14 00:29:57;;;;;;;18.75;8.43;;;-1.10;99.90;;;;;;5070227;28;20411;-57
2022/12/14 00:32:23;;;;;;;17.88;6.72;;;-1.10;99.90;;;;;;5069683;28;20379;-55
2022/12/14 00:34:49;;;;;;;15.77;7.10;;;0.10;99.90;;;;;;5069513;28;20865;-57
2022/12/14 00:37:14;;;;;;;17.43;7.20;;;-1.00;99.90;;;;;;5068706;28;20395;-56
2022/12/14 00:39:40;;;;;;;14.05;6.70;;;-1.00;99.90;;;;;;5069198;28;20379;-56
2022/12/14 00:42:06;;;;;;;14.30;7.15;;;-1.00;99.90;;;;;;5069286;28;20885;-57
2022/12/14 00:44:32;;;;;;;15.95;6.50;;;-1.00;99.90;;;;;;5070090;28;20927;-56
2022/12/14 00:46:58;;;;;;;15.93;7.00;;;-1.10;99.90;;;;;;5070109;28;20376;-56
2022/12/14 00:49:23;;;;;;;15.50;6.30;;;-1.10;99.90;;;;;;5069393;28;20394;-56
2022/12/14 00:51:49;;;;;;;16.27;7.03;;;-1.00;99.90;;;;;;5070025;28;20749;-56
2022/12/14 00:54:15;;;;;;;15.30;7.10;;;-1.10;99.90;;;;;;5069197;28;20722;-56
2022/12/14 00:56:41;;;;;;;15.50;6.55;;;-1.10;99.90;;;;;;5069996;28;20384;-56
2022/12/14 00:59:06;;;;;;;19.85;8.30;;;-1.00;99.90;;;;;;5068977;28;20491;-56
2022/12/14 01:01:32;;;;;;;17.88;7.05;;;-0.90;99.90;;;;;;5070030;28;20375;-56
2022/12/14 01:04:16;;;;;;;18.63;7.00;;;-0.90;99.90;;;;;;5069769;28;20400;-57
2022/12/14 01:06:43;;;;;;;19.10;7.20;;;-0.90;99.90;;;;;;5069503;28;20433;-56
2022/12/14 01:09:09;;;;;;;14.20;6.00;;;-0.90;99.90;;;;;;5069210;28;20391;-56
2022/12/14 01:11:35;;;;;;;15.70;7.07;;;-1.10;99.90;;;;;;5069754;28;20829;-55
2022/12/14 01:14:01;;;;;;;16.58;6.80;;;-1.20;99.90;;;;;;5069025;28;20834;-60
2022/12/14 01:16:27;;;;;;;17.67;8.07;;;-1.10;99.90;;;;;;5049858;28;20400;-57
2022/12/14 01:18:52;;;;;;;19.08;7.70;;;-1.00;99.90;;;;;;5049297;28;20389;-56
2022/12/14 01:21:22;;;;;;;17.10;7.33;;;-0.90;99.90;;;;;;5048664;28;20393;-56
2022/12/14 01:23:51;;;;;;;18.95;7.95;;;-0.90;99.90;;;;;;5067357;28;20368;-56
2022/12/14 01:26:18;;;;;;;15.98;7.20;;;-0.90;99.90;;;;;;5068791;28;20858;-56
2022/12/14 01:28:45;;;;;;;17.65;7.40;;;-1.00;99.90;;;;;;5069712;28;20384;-56
2022/12/14 01:31:13;;;;;;;16.55;7.05;;;-0.90;99.90;;;;;;5069057;28;20401;-56
2022/12/14 01:33:39;;;;;;;16.87;7.90;;;-0.80;99.90;;;;;;5069388;28;20461;-56
2022/12/14 01:36:07;;;;;;;17.90;7.73;;;-0.80;99.90;;;;;;5068499;28;20861;-56
2022/12/14 01:38:33;;;;;;;17.83;6.72;;;-0.80;99.90;;;;;;5069638;28;20434;-56
2022/12/14 01:40:59;;;;;;;16.20;7.20;;;-0.80;99.90;;;;;;5069450;28;20375;-56
2022/12/14 01:43:24;;;;;;;21.40;6.73;;;-0.80;99.90;;;;;;5068743;28;20375;-56
2022/12/14 01:45:54;;;;;;;15.80;7.60;;;-0.80;99.90;;;;;;5066040;28;20382;-55
2022/12/14 01:48:20;;;;;;;14.98;6.65;;;-0.80;99.90;;;;;;5048586;28;20828;-56
2022/12/14 01:50:46;;;;;;;15.05;6.72;;;-0.80;99.90;;;;;;5065157;28;20398;-57
2022/12/14 01:53:20;;;;;;;15.70;6.70;;;-0.80;99.90;;;;;;5068721;28;20388;-56
2022/12/14 01:55:50;;;;;;;14.73;7.55;;;-0.80;99.90;;;;;;5069393;28;20395;-56
2022/12/14 01:58:20;;;;;;;17.35;6.80;;;-0.80;99.90;;;;;;5068323;28;20398;-56
2022/12/14 02:00:46;;;;;;;22.17;8.37;;;-0.90;99.90;;;;;;5069245;28;20471;-56
2022/12/14 02:03:23;;;;;;;16.58;7.88;;;-1.00;99.90;;;;;;5068413;28;20471;-56
2022/12/14 02:06:05;;;;;;;14.10;6.43;;;-1.00;99.90;;;;;;5069068;28;20441;-56
2022/12/14 02:08:32;;;;;;;15.90;7.05;;;-1.10;99.90;;;;;;5069491;28;20399;-56
2022/12/14 02:10:58;;;;;;;16.63;7.13;;;-1.10;99.90;;;;;;5070599;28;20442;-56
2022/12/14 02:13:28;;;;;;;14.98;6.93;;;-1.00;99.90;;;;;;5072322;28;20389;-56
2022/12/14 02:15:53;;;;;;;15.38;6.80;;;-1.00;99.90;;;;;;5072875;28;20376;-56
2022/12/14 02:18:25;;;;;;;17.10;7.20;;;-1.00;99.90;;;;;;5057237;28;20743;-56
2022/12/14 02:21:07;;;;;;;18.30;7.90;;;-0.90;99.90;;;;;;5052937;28;20381;-56
2022/12/14 02:23:54;;;;;;;18.60;7.03;;;-0.80;99.90;;;;;;5052885;28;20386;-56
2022/12/14 02:26:52;;;;;;;18.52;6.88;;;-1.00;99.90;;;;;;5052264;28;20818;-56
2022/12/14 02:29:39;;;;;;;19.05;8.00;;;-1.00;99.90;;;;;;5052061;28;20461;-55
2022/12/14 02:32:34;;;;;;;16.67;8.00;;;-0.80;99.90;;;;;;5051941;28;20472;-61
2022/12/14 02:35:41;;;;;;;17.38;8.35;;;-0.80;99.90;;;;;;5052581;28;20447;-55
2022/12/14 02:38:28;;;;;;;20.08;9.07;;;-0.80;99.90;;;;;;5049043;28;20496;-56
2022/12/14 02:41:00;;;;;;;15.88;7.15;;;-0.90;99.90;;;;;;5052277;28;20883;-56
2022/12/14 02:43:51;;;;;;;21.92;8.70;;;-0.90;99.90;;;;;;5051945;28;20854;-55
2022/12/14 02:46:24;;;;;;;20.35;8.48;;;-1.00;99.90;;;;;;5051708;28;20393;-56
2022/12/14 02:49:22;;;;;;;19.90;7.63;;;-1.00;99.90;;;;;;5034844;28;20744;-56
2022/12/14 02:52:09;;;;;;;20.63;9.00;;;-1.00;99.90;;;;;;5052472;28;20635;-56
2022/12/14 02:54:40;;;;;;;21.80;9.90;;;-0.80;99.90;;;;;;5052349;28;20438;-56
2022/12/14 02:57:09;;;;;;;21.60;8.50;;;-0.80;99.90;;;;;;5051622;28;20459;-56
2022/12/14 02:59:36;;;;;;;20.03;8.63;;;-0.80;99.90;;;;;;5052282;28;20409;-56
2022/12/14 03:02:03;;;;;;;20.08;8.82;;;-0.80;99.90;;;;;;5052002;28;20869;-60
2022/12/14 03:04:28;;;;;;;16.38;7.75;;;-0.90;99.90;;;;;;5051499;28;20397;-56
2022/12/14 03:07:26;;;;;;;18.58;8.60;;;-1.00;99.90;;;;;;5051901;28;20392;-56
2022/12/14 03:09:52;;;;;;;19.73;8.35;;;-0.60;99.90;;;;;;5050646;28;20413;-56
2022/12/14 03:12:19;;;;;;;18.40;7.80;;;-1.00;99.90;;;;;;5051428;28;20519;-56
2022/12/14 03:14:51;;;;;;;17.90;8.38;;;-1.00;99.90;;;;;;5051823;28;20382;-56
2022/12/14 03:17:19;;;;;;;17.58;7.75;;;0.40;99.90;;;;;;5051060;28;20858;-58
2022/12/14 03:20:13;;;;;;;19.00;9.13;;;-1.00;99.90;;;;;;5051751;28;20389;-56
2022/12/14 03:22:56;;;;;;;15.00;7.00;;;-0.90;99.90;;;;;;5051163;28;20487;-56
2022/12/14 03:25:28;;;;;;;19.05;8.73;;;-1.00;99.90;;;;;;5051204;28;20377;-56
2022/12/14 03:28:06;;;;;;;20.63;8.38;;;-1.10;99.90;;;;;;5051787;28;20442;-58
2022/12/14 03:30:34;;;;;;;18.52;7.95;;;-1.10;99.90;;;;;;5050872;28;20401;-56
2022/12/14 03:33:04;;;;;;;19.63;8.30;;;-1.20;99.90;;;;;;5070917;28;20411;-56
2022/12/14 03:35:46;;;;;;;16.80;7.18;;;-1.10;99.90;;;;;;5071402;28;20410;-56
2022/12/14 03:38:39;;;;;;;20.70;8.25;;;-1.10;99.90;;;;;;5070784;28;20384;-56
2022/12/14 03:41:22;;;;;;;19.25;8.85;;;-1.10;99.90;;;;;;5068091;28;20490;-61
2022/12/14 03:43:58;;;;;;;16.83;7.47;;;-1.10;99.90;;;;;;5067194;28;20377;-56
2022/12/14 03:46:41;;;;;;;16.67;8.00;;;-1.20;99.90;;;;;;5050910;28;20417;-56
2022/12/14 03:49:28;;;;;;;18.83;8.18;;;0.10;99.90;;;;;;5050640;28;20890;-56
2022/12/14 03:52:06;;;;;;;16.08;8.18;;;-1.00;99.90;;;;;;5057842;28;20403;-56
2022/12/14 03:54:56;;;;;;;20.73;8.48;;;-1.00;99.90;;;;;;5071284;28;20873;-56
2022/12/14 03:57:25;;;;;;;20.88;9.73;;;-0.80;99.90;;;;;;5070669;28;20639;-56
2022/12/14 04:00:02;;;;;;;19.38;8.98;;;-0.70;99.90;;;;;;5053697;28;20382;-58
2022/12/14 04:02:44;;;;;;;18.98;8.05;;;-0.60;99.90;;;;;;5050263;28;20697;-56
2022/12/14 04:05:36;;;;;;;16.95;8.80;;;-0.80;99.90;;;;;;5050015;28;20392;-56
2022/12/14 04:08:12;;;;;;;20.77;9.00;;;-0.80;99.90;;;;;;5050808;28;20447;-61
2022/12/14 04:19:18;;;;;;;17.80;8.13;;;-0.70;99.90;;;;;;5050237;28;20392;-56
2022/12/14 04:21:52;;;;;;;19.83;7.82;;;-0.70;99.90;;;;;;5050790;28;20392;-56
2022/12/14 04:27:27;;;;;;;18.95;9.50;;;-0.70;99.90;;;;;;5049894;28;20372;-56
2022/12/14 04:29:58;;;;;;;21.38;10.07;;;-0.60;99.90;;;;;;5050634;28;20447;-56
2022/12/14 04:32:35;;;;;;;21.02;8.90;;;-0.60;99.90;;;;;;5049846;28;20508;-56
2022/12/14 04:35:28;;;;;;;18.73;8.57;;;0.80;99.90;;;;;;5069644;28;20812;-56
2022/12/14 04:38:02;;;;;;;21.00;9.63;;;-0.70;99.90;;;;;;5070498;28;20392;-56
2022/12/14 04:41:03;;;;;;;16.73;8.55;;;-0.60;99.90;;;;;;5069777;28;20395;-55
2022/12/14 04:43:34;;;;;;;24.45;10.40;;;-0.70;99.90;;;;;;5052046;28;20846;-55
2022/12/14 04:46:13;;;;;;;21.73;9.52;;;-0.60;99.90;;;;;;5070221;28;20383;-55
2022/12/14 04:49:03;;;;;;;19.23;9.48;;;-0.60;99.90;;;;;;5070048;28;20411;-55
2022/12/14 04:52:26;;;;;;;22.30;9.38;;;-0.60;99.90;;;;;;5050720;28;20412;-58
2022/12/14 04:55:12;;;;;;;24.02;9.80;;;-0.60;99.90;;;;;;4948497;29;20455;-56
2022/12/14 04:57:48;;;;;;;21.63;9.53;;;-0.60;99.90;;;;;;4949968;29;20485;-56
2022/12/14 05:00:15;;;;;;;25.02;10.38;;;-0.60;99.90;;;;;;5028546;28;20521;-56
2022/12/14 05:03:12;;;;;;;19.30;8.18;;;-0.60;99.90;;;;;;5068091;28;20384;-56
2022/12/14 05:06:00;;;;;;;20.07;9.13;;;-0.70;1.00;;;;;;5051768;28;20404;-56
2022/12/14 05:08:52;;;;;;;21.07;10.17;;;-0.80;1.00;;;;;;5067492;28;20423;-56
2022/12/14 05:11:49;;;;;;;22.13;9.90;;;-0.70;1.00;;;;;;5057701;28;20904;-56
2022/12/14 05:14:34;;;;;;;21.45;9.50;;;-0.60;1.00;;;;;;5033735;28;20545;-56
2022/12/14 05:17:03;;;;;;;23.10;10.90;;;-0.60;1.00;;;;;;5054778;28;20508;-56
2022/12/14 05:19:28;;;;;;;20.80;9.73;;;0.70;1.00;;;;;;5064854;28;20405;-56
2022/12/14 05:21:54;;;;;;;22.63;11.00;;;-0.60;1.00;;;;;;5073634;28;20392;-56
2022/12/14 05:24:20;;;;;;;22.88;10.75;;;-0.50;1.00;;;;;;5089935;28;20369;-57
2022/12/14 05:26:46;;;;;;;20.67;9.73;;;-0.60;1.00;;;;;;5089457;28;20871;-57
2022/12/14 05:29:11;;;;;;;23.88;10.70;;;-0.70;1.00;;;;;;5088873;28;20375;-56
2022/12/14 05:31:37;;;;;;;24.40;11.70;;;-0.70;1.00;;;;;;5089702;28;20898;-57
2022/12/14 05:34:03;;;;;;;23.27;11.53;;;-0.60;1.00;;;;;;5057267;28;20406;-56
2022/12/14 05:36:28;;;;;;;25.42;11.55;;;-0.70;1.00;;;;;;5054565;28;20435;-57
2022/12/14 05:38:54;;;;;;;29.73;13.25;;;-0.80;1.00;;;;;;5057354;28;20387;-58
2022/12/14 05:41:20;;;;;;;28.70;13.37;;;-0.80;1.00;;;;;;5064196;28;20940;-58
2022/12/14 05:43:45;;;;;;;29.20;13.75;;;-0.70;1.00;;;;;;5081326;28;20402;-57
2022/12/14 05:46:11;;;;;;;27.80;13.10;;;-0.80;1.00;;;;;;5068719;28;20397;-59
2022/12/14 05:48:37;;;;;;;24.90;11.10;;;-0.70;1.00;;;;;;5072456;28;20383;-57
2022/12/14 05:51:08;;;;;;;24.67;11.40;;;-0.80;1.00;;;;;;5072535;28;20500;-57
2022/12/14 05:53:38;;;;;;;24.67;11.52;;;-0.80;1.00;;;;;;5074576;28;20475;-57
2022/12/14 05:56:06;;;;;;;23.38;11.35;;;-0.80;32.40;;;;;;5074602;28;20471;-58
2022/12/14 05:58:33;;;;;;;25.07;11.33;;;-0.80;60.90;;;;;;5072832;28;20382;-57
2022/12/14 06:01:04;;;;;;;27.10;11.13;;;-0.90;99.90;;;;;;5054276;28;20461;-57
2022/12/14 06:03:30;;;;;;;23.42;11.20;;;-0.90;1.00;;;;;;5072561;28;20396;-55
2022/12/14 06:06:08;;;;;;;25.55;12.60;;;-1.00;1.00;;;;;;5073080;28;20891;-56
2022/12/14 06:08:35;;;;;;;31.05;13.60;;;-0.90;1.00;;;;;;5073289;28;20379;-56
2022/12/14 06:11:07;;;;;;;30.10;13.33;;;-0.90;1.00;;;;;;5072271;28;20514;-57
2022/12/14 06:13:34;;;;;;;30.15;11.90;;;-0.80;1.00;;;;;;5054141;28;20438;-57
2022/12/14 06:16:12;;;;;;;27.20;13.20;;;-0.70;1.00;;;;;;5055261;28;20415;-57
2022/12/14 06:18:46;;;;;;;29.40;13.70;;;-0.60;1.00;;;;;;5072956;28;20463;-57
2022/12/14 06:21:13;;;;;;;32.65;14.30;;;-0.70;99.90;;;;;;5054994;28;20384;-57
2022/12/14 06:23:39;;;;;;;32.38;14.50;;;-0.70;99.90;;;;;;5072940;28;20474;-57
2022/12/14 06:26:05;;;;;;;26.50;12.70;;;-0.70;99.90;;;;;;5073094;28;20388;-57
2022/12/14 06:28:31;;;;;;;27.15;12.35;;;-0.70;99.90;;;;;;5088142;28;20397;-57
2022/12/14 06:30:57;;;;;;;33.17;15.00;;;-0.50;99.90;;;;;;5092400;28;20850;-57
2022/12/14 06:33:22;;;;;;;29.55;12.98;;;-0.50;39.80;;;;;;5073213;28;20426;-54
2022/12/14 06:35:48;;;;;;;22.83;11.60;;;-0.50;1.00;;;;;;5071779;28;20418;-56
2022/12/14 06:38:15;;;;;;;28.48;13.45;;;-0.60;1.00;;;;;;5071485;28;20856;-56
2022/12/14 06:40:40;;;;;;;24.40;12.75;;;-0.60;1.00;;;;;;5072409;28;20380;-55
2022/12/14 06:43:06;;;;;;;25.30;12.53;;;-0.60;1.00;;;;;;5072349;28;20525;-62
2022/12/14 06:45:32;;;;;;;23.20;10.60;;;-0.70;49.60;;;;;;5072120;28;20879;-56
2022/12/14 06:47:58;;;;;;;24.35;11.35;;;-0.60;99.90;;;;;;5072473;28;20768;-58
2022/12/14 06:50:24;;;;;;;26.13;12.88;;;-0.80;99.90;;;;;;5071318;28;20495;-58
2022/12/14 06:52:56;;;;;;;25.40;12.10;;;-0.90;99.90;;;;;;5071933;28;20755;-56
2022/12/14 06:55:22;;;;;;;26.75;11.75;;;0.40;99.90;;;;;;5071347;28;20394;-56
2022/12/14 06:57:52;;;;;;;26.38;13.00;;;-0.90;1.00;;;;;;5071386;28;20391;-56
2022/12/14 07:00:19;;;;;;;27.42;12.10;;;-1.00;1.00;;;;;;5071451;28;20429;-56
2022/12/14 07:02:45;;;;;;;26.20;12.77;;;-1.00;1.00;;;;;;5071986;28;20802;-56
2022/12/14 07:05:11;;;;;;;26.20;12.20;;;-1.00;99.90;;;;;;5063953;28;20889;-56
2022/12/14 07:07:36;;;;;;;22.35;12.25;;;-1.00;99.90;;;;;;5072476;28;20453;-56
2022/12/14 07:10:03;;;;;;;33.97;14.63;;;-1.00;1.00;;;;;;5071610;28;20411;-55
2022/12/14 07:12:29;;;;;;;27.95;14.23;;;-1.00;99.90;;;;;;5070954;28;20391;-55
2022/12/14 07:14:54;;;;;;;29.13;15.27;;;-0.90;1.00;;;;;;5071822;28;20380;-56
2022/12/14 07:17:21;;;;;;;29.67;12.95;;;-0.80;99.90;;;;;;5071264;28;20479;-56
2022/12/14 07:19:47;;;;;;;31.95;15.30;;;-0.90;99.90;;;;;;5053664;28;20430;-56
2022/12/14 07:22:13;;;;;;;27.17;13.48;;;-0.90;99.90;;;;;;5071028;28;20384;-56
2022/12/14 07:24:39;;;;;;;28.65;14.43;;;-1.00;99.90;;;;;;5071440;28;20445;-56
2022/12/14 07:27:05;;;;;;;26.85;12.32;;;-0.90;1.00;;;;;;5053725;28;20388;-56
2022/12/14 07:29:31;;;;;;;28.90;13.53;;;-1.10;1.00;;;;;;5071113;28;20962;-56
2022/12/14 07:31:57;;;;;;;26.63;13.93;;;-1.10;1.00;;;;;;5071208;28;20814;-57
2022/12/14 07:34:22;;;;;;;29.20;14.27;;;-1.00;99.90;;;;;;5070795;28;20400;-56
2022/12/14 07:36:50;;;;;;;27.55;13.98;;;-0.80;1.00;;;;;;5071466;28;20485;-56
2022/12/14 07:39:15;;;;;;;30.50;14.15;;;-0.80;99.90;;;;;;5070796;28;20384;-56
2022/12/14 07:41:42;;;;;;;30.27;14.07;;;-0.80;1.00;;;;;;5071020;28;20843;-57
2022/12/14 07:44:08;;;;;;;34.45;14.38;;;-0.90;99.90;;;;;;5071124;28;20473;-63
2022/12/14 07:46:34;;;;;;;28.75;13.07;;;-0.90;1.00;;;;;;5071466;28;20372;-56
2022/12/14 07:49:01;;;;;;;24.83;13.77;;;-0.50;99.90;;;;;;5071325;28;20459;-59
2022/12/14 07:51:30;;;;;;;28.13;13.27;;;-0.90;1.00;;;;;;5070012;28;20407;-57
2022/12/14 07:53:55;;;;;;;29.60;14.25;;;-0.80;1.00;;;;;;5070988;28;20394;-58
2022/12/14 07:56:24;;;;;;;28.95;14.20;;;-0.90;1.00;;;;;;5070165;28;20873;-56
2022/12/14 07:58:51;;;;;;;33.08;14.13;;;-0.80;1.00;;;;;;5071073;28;20380;-56
2022/12/14 08:01:25;;;;;;;31.00;13.95;;;-0.80;99.90;;;;;;5069917;28;20433;-56
2022/12/14 08:03:53;;;;;;;31.50;15.68;;;-0.80;1.00;;;;;;5070608;28;20395;-59
2022/12/14 08:06:20;;;;;;;30.38;14.30;;;-0.60;1.00;;;;;;5069927;28;20449;-57
2022/12/14 08:08:45;;;;;;;29.92;13.57;;;-0.50;1.00;;;;;;5070983;28;20408;-56
2022/12/14 08:11:12;;;;;;;38.17;14.95;;;-0.50;1.00;;;;;;5069827;28;20443;-56
2022/12/14 08:13:38;;;;;;;31.35;14.50;;;-0.50;1.00;;;;;;5070733;28;20383;-56
2022/12/14 08:16:06;;;;;;;28.83;13.40;;;-0.40;15.80;;;;;;5070312;28;20436;-57
2022/12/14 08:18:32;;;;;;;30.97;14.13;;;-0.50;1.00;;;;;;5070113;28;20452;-56
2022/12/14 08:20:58;;;;;;;33.85;15.50;;;-0.40;99.90;;;;;;5068849;28;20380;-57
2022/12/14 08:23:23;;;;;;;29.05;15.15;;;-0.30;1.00;;;;;;5069743;28;20372;-57
2022/12/14 08:25:57;;;;;;;35.30;17.50;;;-0.20;1.00;;;;;;5070501;28;20791;-59
2022/12/14 08:28:24;;;;;;;32.35;15.20;;;-0.10;1.00;;;;;;5035240;28;20392;-57
2022/12/14 08:30:50;;;;;;;38.35;17.20;;;0.00;1.00;;;;;;5070456;28;20486;-57
2022/12/14 08:33:16;;;;;;;31.67;14.05;;;0.10;1.00;;;;;;5069449;28;20379;-57
2022/12/14 08:35:42;;;;;;;25.88;13.23;;;0.10;31.60;;;;;;5070221;28;20414;-56
2022/12/14 08:38:08;;;;;;;29.47;15.00;;;0.60;1.00;;;;;;5069812;28;20463;-63
2022/12/14 08:40:34;;;;;;;32.13;14.47;;;0.40;1.00;;;;;;5070062;28;20849;-57
2022/12/14 08:43:00;;;;;;;35.70;15.98;;;0.10;1.00;;;;;;5070520;28;20387;-57
2022/12/14 08:45:25;;;;;;;34.80;15.80;;;0.20;1.00;;;;;;5069675;28;20572;-57
2022/12/14 08:47:51;;;;;;;32.33;15.13;;;0.20;1.00;;;;;;5070076;28;20387;-57
2022/12/14 08:50:17;;;;;;;29.27;14.00;;;0.10;1.00;;;;;;5069317;28;20491;-57
2022/12/14 08:52:46;;;;;;;33.87;14.77;;;0.10;75.30;;;;;;5069918;28;20977;-57
2022/12/14 08:55:11;;;;;;;32.60;15.23;;;0.20;99.90;;;;;;5069161;28;20471;-57
2022/12/14 08:57:37;;;;;;;31.30;15.97;;;0.30;19.70;;;;;;5069763;28;20987;-56
2022/12/14 09:00:03;;;;;;;33.10;15.60;;;0.30;1.00;;;;;;5069913;28;20372;-56
2022/12/14 09:02:29;;;;;;;29.00;14.23;;;0.30;99.90;;;;;;5051154;28;20471;-57
2022/12/14 09:04:54;;;;;;;31.95;15.40;;;0.20;1.00;;;;;;5069993;28;20537;-56
2022/12/14 09:07:20;;;;;;;30.03;15.70;;;0.10;1.00;;;;;;5068914;28;20462;-57
2022/12/14 09:09:45;;;;;;;36.63;16.60;;;0.20;99.90;;;;;;5070001;28;20450;-57
2022/12/14 09:12:11;;;;;;;36.33;16.73;;;0.30;99.90;;;;;;5069409;28;20921;-63
2022/12/14 09:14:36;;;;;;;35.70;15.65;;;0.20;1.00;;;;;;5069735;28;20412;-58
2022/12/14 09:17:03;;;;;;;32.28;13.65;;;0.00;99.90;;;;;;5069428;28;20466;-59
2022/12/14 09:19:29;;;;;;;33.17;13.98;;;-0.10;59.90;;;;;;5068653;28;20777;-63
2022/12/14 09:21:55;;;;;;;35.95;15.40;;;-0.30;1.00;;;;;;5051799;28;20388;-56
2022/12/14 09:24:23;;;;;;;30.92;14.10;;;-0.40;1.00;;;;;;5068618;28;20510;-56
2022/12/14 09:26:49;;;;;;;30.40;15.07;;;-0.50;99.90;;;;;;5069423;28;20420;-56
2022/12/14 09:29:17;;;;;;;39.15;17.00;;;-0.50;99.90;;;;;;5068989;28;20380;-55
2022/12/14 09:31:42;;;;;;;34.75;18.45;;;-0.50;99.90;;;;;;5069390;28;20896;-58
2022/12/14 09:34:08;;;;;;;40.33;19.17;;;-0.40;1.00;;;;;;5069350;28;20391;-65
2022/12/14 09:36:35;;;;;;;36.25;16.83;;;0.60;1.00;;;;;;5069316;28;20407;-58
2022/12/14 09:39:00;;;;;;;37.90;16.52;;;-0.30;1.00;;;;;;5069399;28;20386;-58
2022/12/14 09:41:32;;;;;;;35.30;15.63;;;-0.30;1.00;;;;;;5068496;28;20545;-58
2022/12/14 09:44:22;;;;;;;38.72;17.02;;;-0.40;1.00;;;;;;5069332;28;20794;-58
2022/12/14 09:47:24;;;;;;;31.87;16.20;;;-0.40;1.00;;;;;;5069518;28;20384;-58
2022/12/14 09:49:52;;;;;;;39.20;15.77;;;-0.30;1.00;;;;;;5069383;28;20380;-58
2022/12/14 09:52:47;;;;;;;36.97;16.20;;;-0.20;1.00;;;;;;5069127;28;20399;-60
2022/12/14 09:55:18;;;;;;;35.03;16.77;;;0.00;1.00;;;;;;5068508;28;20467;-59
2022/12/14 09:57:48;;;;;;;40.67;17.10;;;0.10;1.00;;;;;;5069467;28;20521;-58
2022/12/14 10:00:18;;;;;;;36.13;16.75;;;0.30;99.90;;;;;;5068765;28;20383;-59
2022/12/14 10:02:47;;;;;;;33.97;17.55;;;0.40;99.90;;;;;;5069254;28;20375;-58
2022/12/14 10:05:26;;;;;;;30.52;15.50;;;0.40;99.90;;;;;;5068632;28;20407;-66
2022/12/14 10:08:03;;;;;;;33.00;15.70;;;1.70;35.60;;;;;;5069372;28;20391;-58
2022/12/14 10:11:05;;;;;;;36.33;17.60;;;0.30;1.00;;;;;;5067984;28;20411;-58
2022/12/14 10:13:50;;;;;;;33.28;16.08;;;0.30;1.00;;;;;;5068164;28;20517;-58
2022/12/14 10:16:27;;;;;;;36.30;16.35;;;0.20;99.90;;;;;;5068359;28;20371;-59
2022/12/14 10:19:17;;;;;;;37.28;17.45;;;0.20;1.00;;;;;;5069265;28;20411;-64
2022/12/14 10:21:59;;;;;;;37.42;18.40;;;0.30;1.00;;;;;;5068981;28;20559;-58
2022/12/14 10:24:30;;;;;;;37.87;16.57;;;0.40;1.00;;;;;;5067856;28;20782;-59
2022/12/14 10:26:56;;;;;;;39.73;16.70;;;0.40;99.90;;;;;;5051363;28;20410;-59
2022/12/14 10:29:40;;;;;;;36.65;18.17;;;0.50;99.90;;;;;;5068064;28;20857;-58
2022/12/14 10:32:21;;;;;;;39.53;16.65;;;0.30;99.90;;;;;;5070737;28;20404;-58
2022/12/14 10:34:47;;;;;;;34.05;17.55;;;0.40;1.00;;;;;;5072912;28;20867;-59
2022/12/14 10:37:22;;;;;;;38.88;16.63;;;0.40;99.90;;;;;;5071692;28;20404;-66
2022/12/14 10:40:27;;;;;;;36.10;16.20;;;0.30;99.90;;;;;;5072643;28;20805;-59
2022/12/14 10:43:10;;;;;;;34.30;15.95;;;0.40;1.00;;;;;;5072586;28;20916;-59
2022/12/14 10:46:14;;;;;;;37.33;17.98;;;0.40;99.90;;;;;;5072182;28;20918;-58
2022/12/14 10:48:49;;;;;;;38.63;18.83;;;0.60;1.00;;;;;;5072482;28;20368;-59
2022/12/14 10:51:28;;;;;;;35.25;16.80;;;0.80;1.00;;;;;;5071530;28;20843;-59
2022/12/14 10:54:00;;;;;;;40.03;17.80;;;0.90;1.00;;;;;;5072524;28;20392;-58
2022/12/14 10:56:31;;;;;;;39.05;17.70;;;1.30;99.90;;;;;;5071398;28;20375;-59
2022/12/14 10:59:22;;;;;;;37.97;18.77;;;1.10;99.90;;;;;;5072121;28;20375;-59
2022/12/14 11:02:00;;;;;;;31.40;15.45;;;1.20;1.00;;;;;;5072393;28;20419;-58
2022/12/14 11:04:38;;;;;;;39.47;17.07;;;1.40;99.90;;;;;;5071341;28;20417;-58
2022/12/14 11:07:10;;;;;;;37.57;18.00;;;2.50;99.90;;;;;;5072314;28;20707;-57
2022/12/14 11:09:37;;;;;;;39.10;18.13;;;1.60;99.90;;;;;;5071567;28;20384;-59
2022/12/14 11:12:11;;;;;;;36.97;17.90;;;1.70;99.90;;;;;;5053943;28;20399;-56
2022/12/14 11:14:37;;;;;;;46.38;21.00;;;1.80;99.90;;;;;;5071799;28;20395;-56
2022/12/14 11:17:03;;;;;;;43.20;18.15;;;1.70;1.00;;;;;;5071940;28;20376;-56
2022/12/14 11:19:28;;;;;;;33.93;16.80;;;1.70;1.00;;;;;;5071219;28;20433;-57
2022/12/14 11:22:23;;;;;;;32.17;16.00;;;1.90;1.00;;;;;;5072128;28;20376;-58
2022/12/14 11:24:50;;;;;;;41.92;17.58;;;2.10;99.90;;;;;;5057825;28;20471;-62
2022/12/14 11:27:19;;;;;;;34.30;16.83;;;2.00;99.90;;;;;;5071101;28;20483;-57
2022/12/14 11:29:48;;;;;;;41.95;17.92;;;2.10;99.90;;;;;;5071637;28;20936;-57
2022/12/14 11:32:20;;;;;;;39.90;18.63;;;2.30;99.90;;;;;;5070272;28;20406;-65
2022/12/14 11:34:53;;;;;;;36.35;16.35;;;2.40;99.90;;;;;;5067334;28;20897;-57
2022/12/14 11:37:24;;;;;;;34.50;16.42;;;2.60;2.70;;;;;;5068217;28;20440;-56
2022/12/14 11:39:56;;;;;;;37.93;18.27;;;2.60;1.00;;;;;;5067695;28;20537;-57
2022/12/14 11:42:22;;;;;;;36.95;15.23;;;2.60;1.00;;;;;;5069538;28;20395;-57
2022/12/14 11:44:49;;;;;;;40.20;18.30;;;2.50;1.00;;;;;;5071110;28;20725;-58
2022/12/14 11:47:24;;;;;;;39.60;17.40;;;2.20;1.00;;;;;;5070236;28;20460;-58
2022/12/14 11:49:53;;;;;;;35.47;17.58;;;2.10;1.00;;;;;;5070796;28;20384;-57
2022/12/14 11:52:38;;;;;;;37.60;17.30;;;2.10;1.00;;;;;;5065023;28;20496;-58
2022/12/14 11:55:13;;;;;;;37.80;18.35;;;2.20;1.00;;;;;;5066946;28;20400;-57
2022/12/14 11:57:50;;;;;;;42.53;17.88;;;2.40;1.00;;;;;;5064868;28;20495;-58
2022/12/14 12:00:18;;;;;;;32.70;16.70;;;2.50;1.00;;;;;;5062424;28;20425;-58
2022/12/14 12:02:58;;;;;;;35.30;16.30;;;2.50;1.00;;;;;;5068704;28;20383;-58
2022/12/14 12:05:25;;;;;;;37.85;17.73;;;2.50;1.00;;;;;;5066240;28;20726;-57
2022/12/14 12:07:54;;;;;;;37.17;17.20;;;2.50;1.00;;;;;;5070115;28;20441;-58
2022/12/14 12:10:42;;;;;;;36.53;17.80;;;2.30;1.00;;;;;;5069517;28;20450;-59
2022/12/14 12:13:28;;;;;;;38.97;18.20;;;2.30;53.50;;;;;;5069345;28;20394;-58
2022/12/14 12:15:58;;;;;;;35.35;18.27;;;2.00;40.30;;;;;;5070576;28;20368;-58
2022/12/14 12:18:27;;;;;;;37.03;16.05;;;2.10;2.50;;;;;;5069409;28;20420;-58
2022/12/14 12:21:09;;;;;;;36.45;15.52;;;1.90;99.90;;;;;;5069976;28;20880;-58
2022/12/14 12:23:52;;;;;;;33.97;16.85;;;2.00;99.90;;;;;;5065349;28;20465;-59
2022/12/14 12:26:25;;;;;;;39.45;18.27;;;2.10;99.90;;;;;;5067660;28;20397;-59
2022/12/14 12:28:58;;;;;;;34.70;16.30;;;1.90;99.90;;;;;;5069644;28;20768;-59
2022/12/14 12:31:32;;;;;;;38.38;16.92;;;1.90;1.00;;;;;;5068116;28;20412;-58
2022/12/14 12:34:02;;;;;;;31.95;15.80;;;2.00;99.90;;;;;;5069665;28;20404;-58
2022/12/14 12:36:31;;;;;;;34.85;16.13;;;1.90;1.00;;;;;;5068952;28;20411;-61
2022/12/14 12:39:14;;;;;;;32.72;16.05;;;1.80;1.00;;;;;;5069581;28;20391;-58
2022/12/14 12:41:59;;;;;;;35.28;16.13;;;1.80;1.00;;;;;;5069071;28;20896;-61
2022/12/14 12:44:57;;;;;;;36.85;15.88;;;1.80;99.90;;;;;;5069062;28;20871;-59
2022/12/14 12:47:39;;;;;;;34.95;16.70;;;1.60;1.00;;;;;;5069540;28;20380;-58
2022/12/14 12:50:23;;;;;;;32.22;16.15;;;1.50;1.00;;;;;;5070056;28;20380;-58
2022/12/14 12:53:10;;;;;;;39.72;16.85;;;1.60;99.90;;;;;;5070314;28;20379;-57
2022/12/14 12:55:41;;;;;;;36.42;17.02;;;1.60;99.90;;;;;;5068875;28;20485;-58
2022/12/14 12:58:27;;;;;;;40.33;16.98;;;1.50;99.90;;;;;;5067533;28;20403;-59
2022/12/14 13:00:57;;;;;;;39.85;17.05;;;1.50;24.60;;;;;;5069501;28;20403;-58
2022/12/14 13:03:44;;;;;;;32.00;16.23;;;1.50;1.00;;;;;;5068822;28;20403;-57
2022/12/14 13:06:12;;;;;;;35.57;16.30;;;1.50;99.90;;;;;;5071590;28;20400;-59
2022/12/14 13:08:39;;;;;;;39.20;17.83;;;1.30;99.90;;;;;;5068971;28;20391;-59
2022/12/14 13:11:19;;;;;;;39.72;16.80;;;1.30;1.00;;;;;;5066412;28;20421;-59
2022/12/14 13:13:50;;;;;;;39.42;17.05;;;1.30;96.50;;;;;;5057148;28;20391;-59
2022/12/14 13:16:22;;;;;;;35.78;17.00;;;1.00;1.00;;;;;;5068913;28;20869;-66